sensor_id;sensor_type;location;lat;lon;timestamp;P1;durP1;ratioP1;P2;durP2;ratioP2
16693;SDS011;39538;52.196;9.892;2022-07-05T00:00:57;102.93;;;99.47;;
16693;SDS011;39538;52.196;9.892;2022-07-05T00:03:24;97.77;;;94.93;;
16693;SDS011;39538;52.196;9.892;2022-07-05T00:05:52;101.17;;;98.10;;
16693;SDS011;39538;52.196;9.892;2022-07-05T00:08:18;97.37;;;94.43;;
16693;SDS011;39538;52.196;9.892;2022-07-05T00:10:45;87.57;;;85.33;;
16693;SDS011;39538;52.196;9.892;2022-07-05T00:13:12;84.60;;;82.30;;
16693;SDS011;39538;52.196;9.892;2022-07-05T00:15:39;90.10;;;87.53;;
16693;SDS011;39538;52.196;9.892;2022-07-05T00:18:06;83.93;;;81.33;;
16693;SDS011;39538;52.196;9.892;2022-07-05T00:20:33;83.30;;;81.10;;
16693;SDS011;39538;52.196;9.892;2022-07-05T00:23:01;82.17;;;79.57;;
16693;SDS011;39538;52.196;9.892;2022-07-05T00:25:27;76.87;;;74.77;;
16693;SDS011;39538;52.196;9.892;2022-07-05T00:27:53;82.17;;;79.90;;
16693;SDS011;39538;52.196;9.892;2022-07-05T00:30:20;72.27;;;70.03;;
16693;SDS011;39538;52.196;9.892;2022-07-05T00:32:46;72.57;;;70.63;;
16693;SDS011;39538;52.196;9.892;2022-07-05T00:35:13;75.80;;;73.63;;
16693;SDS011;39538;52.196;9.892;2022-07-05T00:37:39;68.27;;;66.57;;
16693;SDS011;39538;52.196;9.892;2022-07-05T00:40:07;75.83;;;73.70;;
16693;SDS011;39538;52.196;9.892;2022-07-05T00:42:34;68.90;;;66.90;;
16693;SDS011;39538;52.196;9.892;2022-07-05T00:45:02;71.33;;;69.53;;
16693;SDS011;39538;52.196;9.892;2022-07-05T00:47:29;66.73;;;64.97;;
16693;SDS011;39538;52.196;9.892;2022-07-05T00:49:55;68.50;;;66.60;;
16693;SDS011;39538;52.196;9.892;2022-07-05T00:52:22;71.50;;;69.50;;
16693;SDS011;39538;52.196;9.892;2022-07-05T00:54:48;68.20;;;66.30;;
16693;SDS011;39538;52.196;9.892;2022-07-05T00:57:16;71.90;;;69.70;;
16693;SDS011;39538;52.196;9.892;2022-07-05T00:59:46;71.90;;;69.97;;
16693;SDS011;39538;52.196;9.892;2022-07-05T01:02:13;71.43;;;69.30;;
16693;SDS011;39538;52.196;9.892;2022-07-05T01:04:39;67.50;;;65.60;;
16693;SDS011;39538;52.196;9.892;2022-07-05T01:07:06;69.27;;;67.50;;
16693;SDS011;39538;52.196;9.892;2022-07-05T01:09:32;70.20;;;68.30;;
16693;SDS011;39538;52.196;9.892;2022-07-05T01:12:00;67.37;;;65.47;;
16693;SDS011;39538;52.196;9.892;2022-07-05T01:14:27;70.27;;;68.37;;
16693;SDS011;39538;52.196;9.892;2022-07-05T01:16:54;72.17;;;70.13;;
16693;SDS011;39538;52.196;9.892;2022-07-05T01:19:21;69.33;;;67.17;;
16693;SDS011;39538;52.196;9.892;2022-07-05T01:21:48;71.57;;;69.13;;
16693;SDS011;39538;52.196;9.892;2022-07-05T01:24:17;72.60;;;70.73;;
16693;SDS011;39538;52.196;9.892;2022-07-05T01:26:45;68.33;;;66.43;;
16693;SDS011;39538;52.196;9.892;2022-07-05T01:29:14;64.10;;;61.43;;
16693;SDS011;39538;52.196;9.892;2022-07-05T01:31:41;66.90;;;65.13;;
16693;SDS011;39538;52.196;9.892;2022-07-05T01:34:07;63.43;;;61.33;;
16693;SDS011;39538;52.196;9.892;2022-07-05T01:36:34;63.10;;;61.17;;
16693;SDS011;39538;52.196;9.892;2022-07-05T01:39:02;69.87;;;68.00;;
16693;SDS011;39538;52.196;9.892;2022-07-05T01:41:31;65.63;;;63.90;;
16693;SDS011;39538;52.196;9.892;2022-07-05T01:43:58;67.73;;;65.77;;
16693;SDS011;39538;52.196;9.892;2022-07-05T01:46:24;69.03;;;66.97;;
16693;SDS011;39538;52.196;9.892;2022-07-05T01:48:56;70.20;;;68.10;;
16693;SDS011;39538;52.196;9.892;2022-07-05T01:51:26;72.87;;;70.77;;
16693;SDS011;39538;52.196;9.892;2022-07-05T01:53:59;69.23;;;67.33;;
16693;SDS011;39538;52.196;9.892;2022-07-05T01:56:25;72.50;;;70.27;;
16693;SDS011;39538;52.196;9.892;2022-07-05T01:58:53;72.93;;;70.87;;
16693;SDS011;39538;52.196;9.892;2022-07-05T02:01:31;66.87;;;64.87;;
16693;SDS011;39538;52.196;9.892;2022-07-05T02:03:58;70.87;;;68.90;;
16693;SDS011;39538;52.196;9.892;2022-07-05T02:06:25;70.13;;;68.13;;
16693;SDS011;39538;52.196;9.892;2022-07-05T02:08:51;68.83;;;66.87;;
16693;SDS011;39538;52.196;9.892;2022-07-05T02:11:18;74.80;;;72.67;;
16693;SDS011;39538;52.196;9.892;2022-07-05T02:13:44;75.47;;;73.13;;
16693;SDS011;39538;52.196;9.892;2022-07-05T02:16:12;70.40;;;68.43;;
16693;SDS011;39538;52.196;9.892;2022-07-05T02:18:38;70.90;;;68.97;;
16693;SDS011;39538;52.196;9.892;2022-07-05T02:21:05;79.67;;;77.50;;
16693;SDS011;39538;52.196;9.892;2022-07-05T02:23:32;80.30;;;77.20;;
16693;SDS011;39538;52.196;9.892;2022-07-05T02:25:58;75.80;;;73.63;;
16693;SDS011;39538;52.196;9.892;2022-07-05T02:28:25;86.63;;;83.57;;
16693;SDS011;39538;52.196;9.892;2022-07-05T02:30:51;80.60;;;78.17;;
16693;SDS011;39538;52.196;9.892;2022-07-05T02:33:19;88.03;;;84.73;;
16693;SDS011;39538;52.196;9.892;2022-07-05T02:35:45;76.93;;;74.70;;
16693;SDS011;39538;52.196;9.892;2022-07-05T02:38:12;86.67;;;84.03;;
16693;SDS011;39538;52.196;9.892;2022-07-05T02:40:38;87.53;;;84.97;;
16693;SDS011;39538;52.196;9.892;2022-07-05T02:43:05;86.73;;;84.27;;
16693;SDS011;39538;52.196;9.892;2022-07-05T02:45:31;81.33;;;78.83;;
16693;SDS011;39538;52.196;9.892;2022-07-05T02:47:58;83.33;;;81.03;;
16693;SDS011;39538;52.196;9.892;2022-07-05T02:50:25;88.30;;;85.77;;
16693;SDS011;39538;52.196;9.892;2022-07-05T02:52:52;79.20;;;76.80;;
16693;SDS011;39538;52.196;9.892;2022-07-05T02:55:18;85.67;;;82.80;;
16693;SDS011;39538;52.196;9.892;2022-07-05T02:57:45;83.47;;;80.90;;
16693;SDS011;39538;52.196;9.892;2022-07-05T03:00:12;88.33;;;85.73;;
16693;SDS011;39538;52.196;9.892;2022-07-05T03:02:39;85.97;;;83.07;;
16693;SDS011;39538;52.196;9.892;2022-07-05T03:05:05;93.47;;;90.33;;
16693;SDS011;39538;52.196;9.892;2022-07-05T03:07:34;86.70;;;84.03;;
16693;SDS011;39538;52.196;9.892;2022-07-05T03:10:00;89.17;;;86.37;;
16693;SDS011;39538;52.196;9.892;2022-07-05T03:12:26;87.77;;;84.90;;
16693;SDS011;39538;52.196;9.892;2022-07-05T03:14:53;82.97;;;79.60;;
16693;SDS011;39538;52.196;9.892;2022-07-05T03:17:19;89.37;;;86.37;;
16693;SDS011;39538;52.196;9.892;2022-07-05T03:19:46;90.00;;;86.93;;
16693;SDS011;39538;52.196;9.892;2022-07-05T03:22:12;96.00;;;93.07;;
16693;SDS011;39538;52.196;9.892;2022-07-05T03:24:40;95.83;;;92.57;;
16693;SDS011;39538;52.196;9.892;2022-07-05T03:27:07;88.27;;;85.37;;
16693;SDS011;39538;52.196;9.892;2022-07-05T03:29:33;91.80;;;88.63;;
16693;SDS011;39538;52.196;9.892;2022-07-05T03:32:00;96.43;;;93.33;;
16693;SDS011;39538;52.196;9.892;2022-07-05T03:34:26;89.03;;;86.33;;
16693;SDS011;39538;52.196;9.892;2022-07-05T03:36:53;93.50;;;90.27;;
16693;SDS011;39538;52.196;9.892;2022-07-05T03:39:19;90.13;;;87.47;;
16693;SDS011;39538;52.196;9.892;2022-07-05T03:41:47;84.00;;;81.13;;
16693;SDS011;39538;52.196;9.892;2022-07-05T03:44:14;79.40;;;77.00;;
16693;SDS011;39538;52.196;9.892;2022-07-05T03:46:40;81.93;;;79.63;;
16693;SDS011;39538;52.196;9.892;2022-07-05T03:49:07;78.13;;;75.90;;
16693;SDS011;39538;52.196;9.892;2022-07-05T03:51:33;80.77;;;78.37;;
16693;SDS011;39538;52.196;9.892;2022-07-05T03:54:00;73.60;;;71.73;;
16693;SDS011;39538;52.196;9.892;2022-07-05T03:56:26;77.40;;;75.30;;
16693;SDS011;39538;52.196;9.892;2022-07-05T03:58:55;77.13;;;75.00;;
16693;SDS011;39538;52.196;9.892;2022-07-05T04:01:21;81.83;;;79.50;;
16693;SDS011;39538;52.196;9.892;2022-07-05T04:03:48;102.00;;;98.77;;
16693;SDS011;39538;52.196;9.892;2022-07-05T04:06:14;84.60;;;82.13;;
16693;SDS011;39538;52.196;9.892;2022-07-05T04:08:41;84.53;;;82.17;;
16693;SDS011;39538;52.196;9.892;2022-07-05T04:11:07;88.37;;;85.87;;
16693;SDS011;39538;52.196;9.892;2022-07-05T04:13:37;84.23;;;81.23;;
16693;SDS011;39538;52.196;9.892;2022-07-05T04:16:06;89.63;;;87.17;;
16693;SDS011;39538;52.196;9.892;2022-07-05T04:18:33;83.30;;;80.90;;
16693;SDS011;39538;52.196;9.892;2022-07-05T04:20:59;92.77;;;89.83;;
16693;SDS011;39538;52.196;9.892;2022-07-05T04:23:26;86.93;;;84.13;;
16693;SDS011;39538;52.196;9.892;2022-07-05T04:25:52;83.03;;;80.70;;
16693;SDS011;39538;52.196;9.892;2022-07-05T04:28:19;81.50;;;78.93;;
16693;SDS011;39538;52.196;9.892;2022-07-05T04:30:46;85.27;;;82.50;;
16693;SDS011;39538;52.196;9.892;2022-07-05T04:33:14;82.10;;;79.50;;
16693;SDS011;39538;52.196;9.892;2022-07-05T04:35:41;90.20;;;87.10;;
16693;SDS011;39538;52.196;9.892;2022-07-05T04:38:07;86.50;;;83.37;;
16693;SDS011;39538;52.196;9.892;2022-07-05T04:40:34;89.63;;;86.93;;
16693;SDS011;39538;52.196;9.892;2022-07-05T04:43:00;85.93;;;83.33;;
16693;SDS011;39538;52.196;9.892;2022-07-05T04:45:27;90.10;;;87.23;;
16693;SDS011;39538;52.196;9.892;2022-07-05T04:47:53;87.93;;;84.57;;
16693;SDS011;39538;52.196;9.892;2022-07-05T04:50:21;101.43;;;97.70;;
16693;SDS011;39538;52.196;9.892;2022-07-05T04:52:47;88.93;;;85.90;;
16693;SDS011;39538;52.196;9.892;2022-07-05T04:55:14;93.13;;;90.13;;
16693;SDS011;39538;52.196;9.892;2022-07-05T04:57:40;92.37;;;89.33;;
16693;SDS011;39538;52.196;9.892;2022-07-05T05:00:08;84.30;;;81.70;;
16693;SDS011;39538;52.196;9.892;2022-07-05T05:02:36;95.10;;;91.57;;
16693;SDS011;39538;52.196;9.892;2022-07-05T05:05:02;92.50;;;89.83;;
16693;SDS011;39538;52.196;9.892;2022-07-05T05:07:31;92.87;;;89.97;;
16693;SDS011;39538;52.196;9.892;2022-07-05T05:09:59;94.97;;;92.03;;
16693;SDS011;39538;52.196;9.892;2022-07-05T05:12:26;99.00;;;96.00;;
16693;SDS011;39538;52.196;9.892;2022-07-05T05:14:52;98.37;;;95.20;;
16693;SDS011;39538;52.196;9.892;2022-07-05T05:17:19;99.60;;;96.20;;
16693;SDS011;39538;52.196;9.892;2022-07-05T05:19:45;105.87;;;102.10;;
16693;SDS011;39538;52.196;9.892;2022-07-05T05:22:11;95.83;;;92.33;;
16693;SDS011;39538;52.196;9.892;2022-07-05T05:24:39;88.77;;;86.03;;
16693;SDS011;39538;52.196;9.892;2022-07-05T05:27:06;94.83;;;92.03;;
16693;SDS011;39538;52.196;9.892;2022-07-05T05:29:32;100.30;;;96.67;;
16693;SDS011;39538;52.196;9.892;2022-07-05T05:31:59;100.53;;;96.97;;
16693;SDS011;39538;52.196;9.892;2022-07-05T05:34:25;86.73;;;83.50;;
16693;SDS011;39538;52.196;9.892;2022-07-05T05:36:52;91.57;;;88.50;;
16693;SDS011;39538;52.196;9.892;2022-07-05T05:39:19;89.37;;;86.27;;
16693;SDS011;39538;52.196;9.892;2022-07-05T05:41:47;85.30;;;82.63;;
16693;SDS011;39538;52.196;9.892;2022-07-05T05:44:13;83.27;;;80.73;;
16693;SDS011;39538;52.196;9.892;2022-07-05T05:46:39;88.33;;;84.73;;
16693;SDS011;39538;52.196;9.892;2022-07-05T05:49:06;82.30;;;79.60;;
16693;SDS011;39538;52.196;9.892;2022-07-05T05:51:32;84.23;;;81.13;;
16693;SDS011;39538;52.196;9.892;2022-07-05T05:53:59;91.10;;;87.77;;
16693;SDS011;39538;52.196;9.892;2022-07-05T05:56:25;78.27;;;75.30;;
16693;SDS011;39538;52.196;9.892;2022-07-05T05:58:53;81.73;;;79.07;;
16693;SDS011;39538;52.196;9.892;2022-07-05T06:01:20;87.57;;;84.00;;
16693;SDS011;39538;52.196;9.892;2022-07-05T06:03:46;73.40;;;70.87;;
16693;SDS011;39538;52.196;9.892;2022-07-05T06:06:12;69.07;;;66.83;;
16693;SDS011;39538;52.196;9.892;2022-07-05T06:08:39;66.20;;;64.20;;
16693;SDS011;39538;52.196;9.892;2022-07-05T06:11:05;66.70;;;63.97;;
16693;SDS011;39538;52.196;9.892;2022-07-05T06:13:32;72.47;;;70.50;;
16693;SDS011;39538;52.196;9.892;2022-07-05T06:16:00;76.57;;;73.53;;
16693;SDS011;39538;52.196;9.892;2022-07-05T06:18:27;70.87;;;68.83;;
16693;SDS011;39538;52.196;9.892;2022-07-05T06:20:54;74.47;;;72.57;;
16693;SDS011;39538;52.196;9.892;2022-07-05T06:23:20;81.97;;;79.47;;
16693;SDS011;39538;52.196;9.892;2022-07-05T06:25:47;74.70;;;72.63;;
16693;SDS011;39538;52.196;9.892;2022-07-05T06:28:13;76.60;;;74.07;;
16693;SDS011;39538;52.196;9.892;2022-07-05T06:30:40;83.13;;;80.33;;
16693;SDS011;39538;52.196;9.892;2022-07-05T06:33:08;91.03;;;87.67;;
16693;SDS011;39538;52.196;9.892;2022-07-05T06:35:35;83.43;;;80.97;;
16693;SDS011;39538;52.196;9.892;2022-07-05T06:38:02;87.53;;;84.17;;
16693;SDS011;39538;52.196;9.892;2022-07-05T06:40:31;85.57;;;82.93;;
16693;SDS011;39538;52.196;9.892;2022-07-05T06:42:59;88.47;;;85.53;;
16693;SDS011;39538;52.196;9.892;2022-07-05T06:45:27;93.73;;;90.53;;
16693;SDS011;39538;52.196;9.892;2022-07-05T06:47:55;115.83;;;111.67;;
16693;SDS011;39538;52.196;9.892;2022-07-05T06:50:23;139.57;;;134.30;;
16693;SDS011;39538;52.196;9.892;2022-07-05T06:52:50;162.40;;;155.77;;
16693;SDS011;39538;52.196;9.892;2022-07-05T06:55:17;158.27;;;151.33;;
16693;SDS011;39538;52.196;9.892;2022-07-05T06:57:44;158.60;;;151.73;;
16693;SDS011;39538;52.196;9.892;2022-07-05T07:00:11;174.47;;;167.13;;
16693;SDS011;39538;52.196;9.892;2022-07-05T07:02:38;170.73;;;163.67;;
16693;SDS011;39538;52.196;9.892;2022-07-05T07:05:05;196.77;;;188.30;;
16693;SDS011;39538;52.196;9.892;2022-07-05T07:07:34;198.50;;;189.40;;
16693;SDS011;39538;52.196;9.892;2022-07-05T07:10:18;194.70;;;186.50;;
16693;SDS011;39538;52.196;9.892;2022-07-05T07:12:45;166.47;;;158.97;;
16693;SDS011;39538;52.196;9.892;2022-07-05T07:15:11;161.03;;;154.27;;
16693;SDS011;39538;52.196;9.892;2022-07-05T07:17:37;158.07;;;151.07;;
16693;SDS011;39538;52.196;9.892;2022-07-05T07:20:04;152.93;;;146.67;;
16693;SDS011;39538;52.196;9.892;2022-07-05T07:22:31;160.30;;;153.27;;
16693;SDS011;39538;52.196;9.892;2022-07-05T07:24:59;165.37;;;158.47;;
16693;SDS011;39538;52.196;9.892;2022-07-05T07:27:25;183.87;;;176.57;;
16693;SDS011;39538;52.196;9.892;2022-07-05T07:29:52;188.23;;;180.47;;
16693;SDS011;39538;52.196;9.892;2022-07-05T07:32:18;202.97;;;194.70;;
16693;SDS011;39538;52.196;9.892;2022-07-05T07:34:45;205.70;;;197.33;;
16693;SDS011;39538;52.196;9.892;2022-07-05T07:37:11;228.90;;;219.33;;
16693;SDS011;39538;52.196;9.892;2022-07-05T07:39:39;214.90;;;206.30;;
16693;SDS011;39538;52.196;9.892;2022-07-05T07:42:07;208.70;;;200.40;;
16693;SDS011;39538;52.196;9.892;2022-07-05T07:44:34;225.03;;;215.93;;
16693;SDS011;39538;52.196;9.892;2022-07-05T07:47:10;211.70;;;202.97;;
16693;SDS011;39538;52.196;9.892;2022-07-05T07:49:36;206.90;;;198.80;;
16693;SDS011;39538;52.196;9.892;2022-07-05T07:52:03;203.70;;;195.30;;
16693;SDS011;39538;52.196;9.892;2022-07-05T07:54:30;209.77;;;201.57;;
16693;SDS011;39538;52.196;9.892;2022-07-05T07:56:56;186.03;;;178.67;;
16693;SDS011;39538;52.196;9.892;2022-07-05T07:59:25;200.50;;;192.70;;
16693;SDS011;39538;52.196;9.892;2022-07-05T08:01:52;208.03;;;199.60;;
16693;SDS011;39538;52.196;9.892;2022-07-05T08:04:18;197.07;;;185.90;;
16693;SDS011;39538;52.196;9.892;2022-07-05T08:06:45;184.53;;;177.47;;
16693;SDS011;39538;52.196;9.892;2022-07-05T08:09:12;185.13;;;178.00;;
16693;SDS011;39538;52.196;9.892;2022-07-05T08:11:39;169.20;;;162.60;;
16693;SDS011;39538;52.196;9.892;2022-07-05T08:14:05;172.60;;;165.73;;
16693;SDS011;39538;52.196;9.892;2022-07-05T08:16:33;189.17;;;181.40;;
16693;SDS011;39538;52.196;9.892;2022-07-05T08:19:00;179.43;;;172.33;;
16693;SDS011;39538;52.196;9.892;2022-07-05T08:21:44;176.70;;;170.00;;
16693;SDS011;39538;52.196;9.892;2022-07-05T08:24:13;194.53;;;186.17;;
16693;SDS011;39538;52.196;9.892;2022-07-05T08:26:40;235.47;;;225.90;;
16693;SDS011;39538;52.196;9.892;2022-07-05T08:29:11;192.87;;;185.57;;
16693;SDS011;39538;52.196;9.892;2022-07-05T08:31:40;177.37;;;169.83;;
16693;SDS011;39538;52.196;9.892;2022-07-05T08:34:08;184.93;;;177.85;;
16693;SDS011;39538;52.196;9.892;2022-07-05T08:36:35;191.40;;;183.67;;
16693;SDS011;39538;52.196;9.892;2022-07-05T08:39:02;187.63;;;180.10;;
16693;SDS011;39538;52.196;9.892;2022-07-05T08:41:29;169.30;;;162.80;;
16693;SDS011;39538;52.196;9.892;2022-07-05T08:43:57;222.15;;;213.38;;
16693;SDS011;39538;52.196;9.892;2022-07-05T08:46:25;178.93;;;172.23;;
16693;SDS011;39538;52.196;9.892;2022-07-05T08:48:58;172.77;;;166.27;;
16693;SDS011;39538;52.196;9.892;2022-07-05T08:51:26;169.50;;;163.03;;
16693;SDS011;39538;52.196;9.892;2022-07-05T08:53:54;175.13;;;168.47;;
16693;SDS011;39538;52.196;9.892;2022-07-05T08:56:21;178.30;;;171.37;;
16693;SDS011;39538;52.196;9.892;2022-07-05T08:58:48;180.33;;;173.43;;
16693;SDS011;39538;52.196;9.892;2022-07-05T09:01:15;175.52;;;168.70;;
16693;SDS011;39538;52.196;9.892;2022-07-05T09:03:42;188.70;;;181.45;;
16693;SDS011;39538;52.196;9.892;2022-07-05T09:06:14;175.85;;;169.02;;
16693;SDS011;39538;52.196;9.892;2022-07-05T09:08:44;180.60;;;173.60;;
16693;SDS011;39538;52.196;9.892;2022-07-05T09:11:12;187.35;;;180.23;;
16693;SDS011;39538;52.196;9.892;2022-07-05T09:13:41;181.20;;;174.07;;
16693;SDS011;39538;52.196;9.892;2022-07-05T09:16:09;192.70;;;185.20;;
16693;SDS011;39538;52.196;9.892;2022-07-05T09:18:44;204.80;;;196.48;;
16693;SDS011;39538;52.196;9.892;2022-07-05T09:21:16;186.55;;;179.25;;
16693;SDS011;39538;52.196;9.892;2022-07-05T09:23:45;204.50;;;196.30;;
16693;SDS011;39538;52.196;9.892;2022-07-05T09:26:19;190.40;;;182.93;;
16693;SDS011;39538;52.196;9.892;2022-07-05T09:28:53;202.02;;;194.13;;
16693;SDS011;39538;52.196;9.892;2022-07-05T09:31:27;212.68;;;203.93;;
16693;SDS011;39538;52.196;9.892;2022-07-05T09:33:56;229.02;;;219.95;;
16693;SDS011;39538;52.196;9.892;2022-07-05T09:36:38;209.35;;;200.82;;
16693;SDS011;39538;52.196;9.892;2022-07-05T09:39:13;210.52;;;201.98;;
16693;SDS011;39538;52.196;9.892;2022-07-05T09:41:39;220.15;;;211.52;;
16693;SDS011;39538;52.196;9.892;2022-07-05T09:44:06;216.00;;;207.25;;
16693;SDS011;39538;52.196;9.892;2022-07-05T09:46:33;177.75;;;170.43;;
16693;SDS011;39538;52.196;9.892;2022-07-05T09:48:59;213.73;;;205.00;;
16693;SDS011;39538;52.196;9.892;2022-07-05T09:51:25;194.70;;;186.98;;
16693;SDS011;39538;52.196;9.892;2022-07-05T09:53:54;185.70;;;178.07;;
16693;SDS011;39538;52.196;9.892;2022-07-05T09:56:21;205.35;;;196.68;;
16693;SDS011;39538;52.196;9.892;2022-07-05T09:58:49;256.23;;;245.38;;
16693;SDS011;39538;52.196;9.892;2022-07-05T10:01:24;215.07;;;205.77;;
16693;SDS011;39538;52.196;9.892;2022-07-05T10:03:52;227.27;;;217.55;;
16693;SDS011;39538;52.196;9.892;2022-07-05T10:06:20;244.57;;;234.15;;
16693;SDS011;39538;52.196;9.892;2022-07-05T10:08:48;270.95;;;258.92;;
16693;SDS011;39538;52.196;9.892;2022-07-05T10:11:17;216.25;;;207.13;;
16693;SDS011;39538;52.196;9.892;2022-07-05T10:13:45;257.92;;;246.45;;
16693;SDS011;39538;52.196;9.892;2022-07-05T10:16:14;239.73;;;228.30;;
16693;SDS011;39538;52.196;9.892;2022-07-05T10:18:42;262.25;;;249.90;;
16693;SDS011;39538;52.196;9.892;2022-07-05T10:21:10;246.80;;;235.88;;
16693;SDS011;39538;52.196;9.892;2022-07-05T10:23:39;261.35;;;249.88;;
16693;SDS011;39538;52.196;9.892;2022-07-05T10:26:09;271.92;;;259.25;;
16693;SDS011;39538;52.196;9.892;2022-07-05T10:28:38;222.13;;;212.07;;
16693;SDS011;39538;52.196;9.892;2022-07-05T10:31:05;227.63;;;217.23;;
16693;SDS011;39538;52.196;9.892;2022-07-05T10:33:33;232.95;;;222.43;;
16693;SDS011;39538;52.196;9.892;2022-07-05T10:36:01;255.60;;;243.55;;
16693;SDS011;39538;52.196;9.892;2022-07-05T10:38:28;297.52;;;283.85;;
16693;SDS011;39538;52.196;9.892;2022-07-05T10:40:57;328.33;;;312.90;;
16693;SDS011;39538;52.196;9.892;2022-07-05T10:43:27;356.10;;;339.40;;
16693;SDS011;39538;52.196;9.892;2022-07-05T10:45:55;344.02;;;327.55;;
16693;SDS011;39538;52.196;9.892;2022-07-05T10:48:22;325.17;;;309.80;;
16693;SDS011;39538;52.196;9.892;2022-07-05T10:50:51;312.90;;;298.15;;
16693;SDS011;39538;52.196;9.892;2022-07-05T10:53:18;309.38;;;294.70;;
16693;SDS011;39538;52.196;9.892;2022-07-05T10:55:50;322.48;;;307.45;;
16693;SDS011;39538;52.196;9.892;2022-07-05T10:58:21;366.30;;;348.48;;
16693;SDS011;39538;52.196;9.892;2022-07-05T11:03:52;349.23;;;332.67;;
16693;SDS011;39538;52.196;9.892;2022-07-05T11:06:20;351.13;;;334.70;;
16693;SDS011;39538;52.196;9.892;2022-07-05T11:11:41;318.73;;;303.52;;
16693;SDS011;39538;52.196;9.892;2022-07-05T11:17:09;314.92;;;300.05;;
16693;SDS011;39538;52.196;9.892;2022-07-05T11:23:01;326.55;;;311.17;;
16693;SDS011;39538;52.196;9.892;2022-07-05T11:25:31;323.55;;;308.50;;
16693;SDS011;39538;52.196;9.892;2022-07-05T11:27:59;322.90;;;307.77;;
16693;SDS011;39538;52.196;9.892;2022-07-05T11:30:26;386.45;;;366.10;;
16693;SDS011;39538;52.196;9.892;2022-07-05T11:32:52;330.42;;;314.73;;
16693;SDS011;39538;52.196;9.892;2022-07-05T11:35:21;330.63;;;315.25;;
16693;SDS011;39538;52.196;9.892;2022-07-05T11:38:03;344.05;;;328.23;;
16693;SDS011;39538;52.196;9.892;2022-07-05T11:40:32;373.38;;;355.48;;
16693;SDS011;39538;52.196;9.892;2022-07-05T11:43:00;385.17;;;366.67;;
16693;SDS011;39538;52.196;9.892;2022-07-05T11:45:28;382.38;;;363.63;;
16693;SDS011;39538;52.196;9.892;2022-07-05T11:47:55;389.52;;;370.95;;
16693;SDS011;39538;52.196;9.892;2022-07-05T11:50:28;401.35;;;381.38;;
16693;SDS011;39538;52.196;9.892;2022-07-05T11:52:56;363.80;;;346.15;;
16693;SDS011;39538;52.196;9.892;2022-07-05T11:55:24;361.13;;;344.13;;
16693;SDS011;39538;52.196;9.892;2022-07-05T11:57:52;368.60;;;346.38;;
16693;SDS011;39538;52.196;9.892;2022-07-05T12:00:27;350.38;;;332.05;;
16693;SDS011;39538;52.196;9.892;2022-07-05T12:02:54;376.90;;;358.90;;
16693;SDS011;39538;52.196;9.892;2022-07-05T12:05:21;415.60;;;394.27;;
16693;SDS011;39538;52.196;9.892;2022-07-05T12:07:52;408.13;;;387.63;;
16693;SDS011;39538;52.196;9.892;2022-07-05T12:10:18;442.50;;;419.30;;
16693;SDS011;39538;52.196;9.892;2022-07-05T12:13:04;448.73;;;425.42;;
16693;SDS011;39538;52.196;9.892;2022-07-05T12:15:31;482.05;;;456.33;;
16693;SDS011;39538;52.196;9.892;2022-07-05T12:17:59;469.00;;;443.67;;
16693;SDS011;39538;52.196;9.892;2022-07-05T12:20:28;450.90;;;427.00;;
16693;SDS011;39538;52.196;9.892;2022-07-05T12:22:56;435.73;;;413.10;;
16693;SDS011;39538;52.196;9.892;2022-07-05T12:25:23;420.45;;;399.50;;
16693;SDS011;39538;52.196;9.892;2022-07-05T12:27:52;419.67;;;398.42;;
16693;SDS011;39538;52.196;9.892;2022-07-05T12:30:20;414.10;;;393.05;;
16693;SDS011;39538;52.196;9.892;2022-07-05T12:32:54;394.85;;;375.50;;
16693;SDS011;39538;52.196;9.892;2022-07-05T12:35:31;407.10;;;386.73;;
16693;SDS011;39538;52.196;9.892;2022-07-05T12:38:04;424.98;;;403.40;;
16693;SDS011;39538;52.196;9.892;2022-07-05T12:40:32;456.60;;;432.52;;
16693;SDS011;39538;52.196;9.892;2022-07-05T12:43:03;441.05;;;417.88;;
16693;SDS011;39538;52.196;9.892;2022-07-05T12:45:34;454.73;;;430.65;;
16693;SDS011;39538;52.196;9.892;2022-07-05T12:48:03;425.40;;;403.23;;
16693;SDS011;39538;52.196;9.892;2022-07-05T12:50:43;419.88;;;398.25;;
16693;SDS011;39538;52.196;9.892;2022-07-05T12:53:13;417.42;;;395.77;;
16693;SDS011;39538;52.196;9.892;2022-07-05T12:55:58;406.17;;;385.88;;
16693;SDS011;39538;52.196;9.892;2022-07-05T12:58:47;371.75;;;353.27;;
16693;SDS011;39538;52.196;9.892;2022-07-05T13:01:18;381.25;;;362.45;;
16693;SDS011;39538;52.196;9.892;2022-07-05T13:04:04;388.02;;;368.67;;
16693;SDS011;39538;52.196;9.892;2022-07-05T13:06:44;347.92;;;331.63;;
16693;SDS011;39538;52.196;9.892;2022-07-05T13:09:14;357.00;;;340.30;;
16693;SDS011;39538;52.196;9.892;2022-07-05T13:11:42;364.35;;;346.70;;
16693;SDS011;39538;52.196;9.892;2022-07-05T13:14:09;367.85;;;350.42;;
16693;SDS011;39538;52.196;9.892;2022-07-05T13:16:36;409.38;;;388.77;;
16693;SDS011;39538;52.196;9.892;2022-07-05T13:19:05;388.30;;;369.33;;
16693;SDS011;39538;52.196;9.892;2022-07-05T13:21:35;354.02;;;337.15;;
16693;SDS011;39538;52.196;9.892;2022-07-05T13:24:02;359.38;;;342.42;;
16693;SDS011;39538;52.196;9.892;2022-07-05T13:26:31;335.50;;;319.60;;
16693;SDS011;39538;52.196;9.892;2022-07-05T13:28:57;333.45;;;317.58;;
16693;SDS011;39538;52.196;9.892;2022-07-05T13:31:24;330.83;;;315.58;;
16693;SDS011;39538;52.196;9.892;2022-07-05T13:33:50;318.55;;;303.58;;
16693;SDS011;39538;52.196;9.892;2022-07-05T13:36:16;265.50;;;253.18;;
16693;SDS011;39538;52.196;9.892;2022-07-05T13:38:43;291.52;;;278.15;;
16693;SDS011;39538;52.196;9.892;2022-07-05T13:41:09;286.08;;;272.85;;
16693;SDS011;39538;52.196;9.892;2022-07-05T13:43:37;268.63;;;256.33;;
16693;SDS011;39538;52.196;9.892;2022-07-05T13:46:04;261.80;;;249.70;;
16693;SDS011;39538;52.196;9.892;2022-07-05T13:48:30;265.83;;;253.45;;
16693;SDS011;39538;52.196;9.892;2022-07-05T13:50:58;238.85;;;228.07;;
16693;SDS011;39538;52.196;9.892;2022-07-05T13:53:24;220.25;;;210.00;;
16693;SDS011;39538;52.196;9.892;2022-07-05T13:55:51;218.88;;;208.73;;
16693;SDS011;39538;52.196;9.892;2022-07-05T13:58:17;232.27;;;221.38;;
16693;SDS011;39538;52.196;9.892;2022-07-05T14:00:45;209.38;;;199.65;;
16693;SDS011;39538;52.196;9.892;2022-07-05T14:03:11;198.35;;;189.45;;
16693;SDS011;39538;52.196;9.892;2022-07-05T14:05:38;192.27;;;183.57;;
16693;SDS011;39538;52.196;9.892;2022-07-05T14:08:04;198.13;;;189.15;;
16693;SDS011;39538;52.196;9.892;2022-07-05T14:10:31;216.77;;;206.30;;
16693;SDS011;39538;52.196;9.892;2022-07-05T14:12:57;190.80;;;182.18;;
16693;SDS011;39538;52.196;9.892;2022-07-05T14:15:23;193.63;;;184.18;;
16693;SDS011;39538;52.196;9.892;2022-07-05T14:17:51;181.98;;;173.80;;
16693;SDS011;39538;52.196;9.892;2022-07-05T14:20:18;170.23;;;162.35;;
16693;SDS011;39538;52.196;9.892;2022-07-05T14:22:44;167.32;;;160.00;;
16693;SDS011;39538;52.196;9.892;2022-07-05T14:25:11;164.38;;;156.95;;